sensor_id;sensor_type;location;lat;lon;timestamp;temperature;humidity
6270;DHT22;3168;51.684;6.954;2022-07-12T00:00:41;15.20;99.90
6270;DHT22;3168;51.684;6.954;2022-07-12T00:03:07;15.20;99.90
6270;DHT22;3168;51.684;6.954;2022-07-12T00:05:33;15.10;99.90
6270;DHT22;3168;51.684;6.954;2022-07-12T00:07:59;15.10;99.90
6270;DHT22;3168;51.684;6.954;2022-07-12T00:10:25;15.10;99.90
6270;DHT22;3168;51.684;6.954;2022-07-12T00:12:51;15.10;99.90
6270;DHT22;3168;51.684;6.954;2022-07-12T00:15:17;15.00;99.90
6270;DHT22;3168;51.684;6.954;2022-07-12T00:17:43;15.00;99.90
6270;DHT22;3168;51.684;6.954;2022-07-12T00:20:10;14.80;99.90
6270;DHT22;3168;51.684;6.954;2022-07-12T00:22:36;14.60;99.90
6270;DHT22;3168;51.684;6.954;2022-07-12T00:25:02;14.50;99.90
6270;DHT22;3168;51.684;6.954;2022-07-12T00:27:27;14.40;99.90
6270;DHT22;3168;51.684;6.954;2022-07-12T00:29:54;14.20;99.90
6270;DHT22;3168;51.684;6.954;2022-07-12T00:32:20;14.20;99.90
6270;DHT22;3168;51.684;6.954;2022-07-12T00:34:46;14.20;99.90
6270;DHT22;3168;51.684;6.954;2022-07-12T00:37:12;14.30;99.90
6270;DHT22;3168;51.684;6.954;2022-07-12T00:39:37;14.40;99.90
6270;DHT22;3168;51.684;6.954;2022-07-12T00:42:04;14.40;99.90
6270;DHT22;3168;51.684;6.954;2022-07-12T00:44:30;14.40;99.90
6270;DHT22;3168;51.684;6.954;2022-07-12T00:46:57;14.40;99.90
6270;DHT22;3168;51.684;6.954;2022-07-12T00:49:23;14.40;99.90
6270;DHT22;3168;51.684;6.954;2022-07-12T00:51:48;14.20;99.90
6270;DHT22;3168;51.684;6.954;2022-07-12T00:54:14;14.20;99.90
6270;DHT22;3168;51.684;6.954;2022-07-12T00:56:40;14.30;99.90
6270;DHT22;3168;51.684;6.954;2022-07-12T00:59:06;14.20;99.90
6270;DHT22;3168;51.684;6.954;2022-07-12T01:01:32;14.20;99.90
6270;DHT22;3168;51.684;6.954;2022-07-12T01:03:58;14.00;99.90
6270;DHT22;3168;51.684;6.954;2022-07-12T01:06:23;13.80;99.90
6270;DHT22;3168;51.684;6.954;2022-07-12T01:08:49;14.00;99.90
6270;DHT22;3168;51.684;6.954;2022-07-12T01:11:15;13.90;99.90
6270;DHT22;3168;51.684;6.954;2022-07-12T01:13:41;13.90;99.90
6270;DHT22;3168;51.684;6.954;2022-07-12T01:16:07;13.90;99.90
6270;DHT22;3168;51.684;6.954;2022-07-12T01:18:33;14.00;99.90
6270;DHT22;3168;51.684;6.954;2022-07-12T01:21:01;13.90;99.90
6270;DHT22;3168;51.684;6.954;2022-07-12T01:23:24;13.80;99.90
6270;DHT22;3168;51.684;6.954;2022-07-12T01:25:50;13.70;99.90
6270;DHT22;3168;51.684;6.954;2022-07-12T01:28:16;13.70;99.90
6270;DHT22;3168;51.684;6.954;2022-07-12T01:30:42;13.70;99.90
6270;DHT22;3168;51.684;6.954;2022-07-12T01:33:08;13.70;99.90
6270;DHT22;3168;51.684;6.954;2022-07-12T01:35:34;13.60;99.90
6270;DHT22;3168;51.684;6.954;2022-07-12T01:38:00;13.50;99.90
6270;DHT22;3168;51.684;6.954;2022-07-12T01:40:26;13.50;99.90
6270;DHT22;3168;51.684;6.954;2022-07-12T01:42:52;13.60;99.90
6270;DHT22;3168;51.684;6.954;2022-07-12T01:45:17;13.70;99.90
6270;DHT22;3168;51.684;6.954;2022-07-12T01:47:43;13.70;99.90
6270;DHT22;3168;51.684;6.954;2022-07-12T01:50:10;13.80;99.90
6270;DHT22;3168;51.684;6.954;2022-07-12T01:52:35;13.80;99.90
6270;DHT22;3168;51.684;6.954;2022-07-12T01:55:01;13.70;99.90
6270;DHT22;3168;51.684;6.954;2022-07-12T01:57:27;13.70;99.90
6270;DHT22;3168;51.684;6.954;2022-07-12T01:59:53;13.70;99.90
6270;DHT22;3168;51.684;6.954;2022-07-12T02:02:19;13.70;99.90
6270;DHT22;3168;51.684;6.954;2022-07-12T02:04:44;13.70;99.90
6270;DHT22;3168;51.684;6.954;2022-07-12T02:07:10;13.70;99.90
6270;DHT22;3168;51.684;6.954;2022-07-12T02:09:36;13.70;99.90
6270;DHT22;3168;51.684;6.954;2022-07-12T02:12:02;13.60;99.90
6270;DHT22;3168;51.684;6.954;2022-07-12T02:14:28;13.50;99.90
6270;DHT22;3168;51.684;6.954;2022-07-12T02:16:54;13.50;99.90
6270;DHT22;3168;51.684;6.954;2022-07-12T02:19:20;13.50;99.90
6270;DHT22;3168;51.684;6.954;2022-07-12T02:21:46;13.40;99.90
6270;DHT22;3168;51.684;6.954;2022-07-12T02:24:12;13.50;99.90
6270;DHT22;3168;51.684;6.954;2022-07-12T02:26:38;13.50;99.90
6270;DHT22;3168;51.684;6.954;2022-07-12T02:29:04;13.50;99.90
6270;DHT22;3168;51.684;6.954;2022-07-12T02:31:29;13.50;99.90
6270;DHT22;3168;51.684;6.954;2022-07-12T02:33:55;13.50;99.90
6270;DHT22;3168;51.684;6.954;2022-07-12T02:36:21;13.50;99.90
6270;DHT22;3168;51.684;6.954;2022-07-12T02:38:47;13.50;99.90
6270;DHT22;3168;51.684;6.954;2022-07-12T02:41:13;13.50;99.90
6270;DHT22;3168;51.684;6.954;2022-07-12T02:43:39;13.40;99.90
6270;DHT22;3168;51.684;6.954;2022-07-12T02:46:06;13.40;99.90
6270;DHT22;3168;51.684;6.954;2022-07-12T02:48:30;13.30;99.90
6270;DHT22;3168;51.684;6.954;2022-07-12T02:50:56;13.30;99.90
6270;DHT22;3168;51.684;6.954;2022-07-12T02:53:22;13.20;99.90
6270;DHT22;3168;51.684;6.954;2022-07-12T02:55:48;13.20;99.90
6270;DHT22;3168;51.684;6.954;2022-07-12T02:58:14;13.20;99.90
6270;DHT22;3168;51.684;6.954;2022-07-12T03:00:40;13.20;99.90
6270;DHT22;3168;51.684;6.954;2022-07-12T03:03:05;13.20;99.90
6270;DHT22;3168;51.684;6.954;2022-07-12T03:05:32;13.20;99.90
6270;DHT22;3168;51.684;6.954;2022-07-12T03:07:58;13.10;99.90
6270;DHT22;3168;51.684;6.954;2022-07-12T03:10:24;13.10;99.90
6270;DHT22;3168;51.684;6.954;2022-07-12T03:12:50;13.10;99.90
6270;DHT22;3168;51.684;6.954;2022-07-12T03:15:16;13.00;99.90
6270;DHT22;3168;51.684;6.954;2022-07-12T03:17:42;13.00;99.90
6270;DHT22;3168;51.684;6.954;2022-07-12T03:20:08;13.10;99.90
6270;DHT22;3168;51.684;6.954;2022-07-12T03:22:35;12.80;99.90
6270;DHT22;3168;51.684;6.954;2022-07-12T03:25:01;12.80;99.90
6270;DHT22;3168;51.684;6.954;2022-07-12T03:27:27;12.80;99.90
6270;DHT22;3168;51.684;6.954;2022-07-12T03:29:53;12.80;99.90
6270;DHT22;3168;51.684;6.954;2022-07-12T03:32:19;12.80;99.90
6270;DHT22;3168;51.684;6.954;2022-07-12T03:34:45;12.80;99.90
6270;DHT22;3168;51.684;6.954;2022-07-12T03:37:10;12.90;99.90
6270;DHT22;3168;51.684;6.954;2022-07-12T03:39:36;12.80;99.90
6270;DHT22;3168;51.684;6.954;2022-07-12T03:42:03;12.80;99.90
6270;DHT22;3168;51.684;6.954;2022-07-12T03:44:28;12.80;99.90
6270;DHT22;3168;51.684;6.954;2022-07-12T03:46:54;12.80;99.90
6270;DHT22;3168;51.684;6.954;2022-07-12T03:49:20;12.90;99.90
6270;DHT22;3168;51.684;6.954;2022-07-12T03:51:46;12.90;99.90
6270;DHT22;3168;51.684;6.954;2022-07-12T03:54:13;12.80;99.90
6270;DHT22;3168;51.684;6.954;2022-07-12T03:56:38;12.80;99.90
6270;DHT22;3168;51.684;6.954;2022-07-12T03:59:10;12.70;99.90
6270;DHT22;3168;51.684;6.954;2022-07-12T04:01:37;12.80;99.90
6270;DHT22;3168;51.684;6.954;2022-07-12T04:04:04;12.80;99.90
6270;DHT22;3168;51.684;6.954;2022-07-12T04:06:30;12.80;99.90
6270;DHT22;3168;51.684;6.954;2022-07-12T04:08:55;12.80;99.90
6270;DHT22;3168;51.684;6.954;2022-07-12T04:11:21;12.80;99.90
6270;DHT22;3168;51.684;6.954;2022-07-12T04:13:47;12.70;99.90
6270;DHT22;3168;51.684;6.954;2022-07-12T04:16:13;12.70;99.90
6270;DHT22;3168;51.684;6.954;2022-07-12T04:18:39;12.70;99.90
6270;DHT22;3168;51.684;6.954;2022-07-12T04:21:05;12.80;99.90
6270;DHT22;3168;51.684;6.954;2022-07-12T04:23:31;12.80;99.90
6270;DHT22;3168;51.684;6.954;2022-07-12T04:25:56;12.90;99.90
6270;DHT22;3168;51.684;6.954;2022-07-12T04:28:22;13.00;99.90
6270;DHT22;3168;51.684;6.954;2022-07-12T04:30:49;13.10;99.90
6270;DHT22;3168;51.684;6.954;2022-07-12T04:33:15;13.10;99.90
6270;DHT22;3168;51.684;6.954;2022-07-12T04:35:41;13.20;99.90
6270;DHT22;3168;51.684;6.954;2022-07-12T04:38:07;13.30;99.90
6270;DHT22;3168;51.684;6.954;2022-07-12T04:40:32;13.40;99.90
6270;DHT22;3168;51.684;6.954;2022-07-12T04:42:59;13.40;99.90
6270;DHT22;3168;51.684;6.954;2022-07-12T04:45:25;13.40;99.90
6270;DHT22;3168;51.684;6.954;2022-07-12T04:47:51;13.50;99.90
6270;DHT22;3168;51.684;6.954;2022-07-12T04:50:16;13.60;99.90
6270;DHT22;3168;51.684;6.954;2022-07-12T04:52:43;13.80;99.90
6270;DHT22;3168;51.684;6.954;2022-07-12T04:55:09;13.70;99.90
6270;DHT22;3168;51.684;6.954;2022-07-12T04:57:35;13.80;99.90
6270;DHT22;3168;51.684;6.954;2022-07-12T05:00:02;13.80;99.90
6270;DHT22;3168;51.684;6.954;2022-07-12T05:02:27;13.90;99.90
6270;DHT22;3168;51.684;6.954;2022-07-12T05:04:53;14.10;99.90
6270;DHT22;3168;51.684;6.954;2022-07-12T05:07:19;14.00;99.90
6270;DHT22;3168;51.684;6.954;2022-07-12T05:09:45;14.20;99.90
6270;DHT22;3168;51.684;6.954;2022-07-12T05:12:11;14.40;99.90
6270;DHT22;3168;51.684;6.954;2022-07-12T05:14:37;14.40;99.90
6270;DHT22;3168;51.684;6.954;2022-07-12T05:17:03;14.50;99.90
6270;DHT22;3168;51.684;6.954;2022-07-12T05:19:29;14.60;99.90
6270;DHT22;3168;51.684;6.954;2022-07-12T05:21:55;14.70;99.90
6270;DHT22;3168;51.684;6.954;2022-07-12T05:24:21;14.90;99.90
6270;DHT22;3168;51.684;6.954;2022-07-12T05:26:47;15.00;99.90
6270;DHT22;3168;51.684;6.954;2022-07-12T05:29:13;15.10;99.90
6270;DHT22;3168;51.684;6.954;2022-07-12T05:31:38;15.30;99.90
6270;DHT22;3168;51.684;6.954;2022-07-12T05:34:04;15.40;99.90
6270;DHT22;3168;51.684;6.954;2022-07-12T05:36:30;15.40;99.90
6270;DHT22;3168;51.684;6.954;2022-07-12T05:38:56;15.50;99.90
6270;DHT22;3168;51.684;6.954;2022-07-12T05:41:22;15.50;99.90
6270;DHT22;3168;51.684;6.954;2022-07-12T05:43:48;15.70;99.90
6270;DHT22;3168;51.684;6.954;2022-07-12T05:46:14;15.70;99.90
6270;DHT22;3168;51.684;6.954;2022-07-12T05:48:40;15.80;99.90
6270;DHT22;3168;51.684;6.954;2022-07-12T05:51:06;15.90;99.90
6270;DHT22;3168;51.684;6.954;2022-07-12T05:53:38;16.00;99.90
6270;DHT22;3168;51.684;6.954;2022-07-12T05:56:04;16.00;99.90
6270;DHT22;3168;51.684;6.954;2022-07-12T05:58:30;16.10;99.90
6270;DHT22;3168;51.684;6.954;2022-07-12T06:00:55;16.10;99.90
6270;DHT22;3168;51.684;6.954;2022-07-12T06:03:21;16.30;99.90
6270;DHT22;3168;51.684;6.954;2022-07-12T06:05:47;16.50;99.90
6270;DHT22;3168;51.684;6.954;2022-07-12T06:08:13;16.60;99.90
6270;DHT22;3168;51.684;6.954;2022-07-12T06:10:39;16.80;99.90
6270;DHT22;3168;51.684;6.954;2022-07-12T06:13:05;16.90;99.90
6270;DHT22;3168;51.684;6.954;2022-07-12T06:15:30;17.00;99.90
6270;DHT22;3168;51.684;6.954;2022-07-12T06:17:56;17.10;99.90
6270;DHT22;3168;51.684;6.954;2022-07-12T06:20:22;17.20;99.90
6270;DHT22;3168;51.684;6.954;2022-07-12T06:22:48;17.20;99.90
6270;DHT22;3168;51.684;6.954;2022-07-12T06:25:14;17.20;99.90
6270;DHT22;3168;51.684;6.954;2022-07-12T06:27:40;17.30;99.90
6270;DHT22;3168;51.684;6.954;2022-07-12T06:30:07;17.40;99.90
6270;DHT22;3168;51.684;6.954;2022-07-12T06:32:33;17.50;99.90
6270;DHT22;3168;51.684;6.954;2022-07-12T06:34:58;17.60;99.90
6270;DHT22;3168;51.684;6.954;2022-07-12T06:37:24;17.70;99.90
6270;DHT22;3168;51.684;6.954;2022-07-12T06:39:50;17.80;99.90
6270;DHT22;3168;51.684;6.954;2022-07-12T06:42:16;17.90;99.90
6270;DHT22;3168;51.684;6.954;2022-07-12T06:44:43;18.20;99.90
6270;DHT22;3168;51.684;6.954;2022-07-12T06:47:09;18.20;99.90
6270;DHT22;3168;51.684;6.954;2022-07-12T06:49:34;18.30;99.90
6270;DHT22;3168;51.684;6.954;2022-07-12T06:52:00;18.50;99.90
6270;DHT22;3168;51.684;6.954;2022-07-12T06:54:26;18.60;99.90
6270;DHT22;3168;51.684;6.954;2022-07-12T06:56:52;18.70;99.90
6270;DHT22;3168;51.684;6.954;2022-07-12T06:59:18;18.80;98.90
6270;DHT22;3168;51.684;6.954;2022-07-12T07:01:44;19.00;98.30
6270;DHT22;3168;51.684;6.954;2022-07-12T07:04:09;19.10;97.30
6270;DHT22;3168;51.684;6.954;2022-07-12T07:06:35;19.30;95.60
6270;DHT22;3168;51.684;6.954;2022-07-12T07:09:01;19.40;94.00
6270;DHT22;3168;51.684;6.954;2022-07-12T07:11:28;19.60;93.70
6270;DHT22;3168;51.684;6.954;2022-07-12T07:13:53;19.50;93.70
6270;DHT22;3168;51.684;6.954;2022-07-12T07:16:19;19.80;92.80
6270;DHT22;3168;51.684;6.954;2022-07-12T07:18:45;19.90;92.40
6270;DHT22;3168;51.684;6.954;2022-07-12T07:21:11;20.10;89.60
6270;DHT22;3168;51.684;6.954;2022-07-12T07:23:37;20.20;84.20
6270;DHT22;3168;51.684;6.954;2022-07-12T07:26:03;20.30;81.90
6270;DHT22;3168;51.684;6.954;2022-07-12T07:28:28;20.40;79.80
6270;DHT22;3168;51.684;6.954;2022-07-12T07:30:55;20.40;76.50
6270;DHT22;3168;51.684;6.954;2022-07-12T07:33:21;20.50;74.10
6270;DHT22;3168;51.684;6.954;2022-07-12T07:35:47;20.60;73.80
6270;DHT22;3168;51.684;6.954;2022-07-12T07:38:13;20.60;70.80
6270;DHT22;3168;51.684;6.954;2022-07-12T07:40:39;20.70;68.70
6270;DHT22;3168;51.684;6.954;2022-07-12T07:43:05;20.70;65.20
6270;DHT22;3168;51.684;6.954;2022-07-12T07:45:31;20.80;65.90
6270;DHT22;3168;51.684;6.954;2022-07-12T07:47:56;20.90;67.70
6270;DHT22;3168;51.684;6.954;2022-07-12T07:50:22;21.00;63.20
6270;DHT22;3168;51.684;6.954;2022-07-12T07:52:48;21.00;62.90
6270;DHT22;3168;51.684;6.954;2022-07-12T07:55:14;20.90;57.00
6270;DHT22;3168;51.684;6.954;2022-07-12T07:57:40;20.80;56.90
6270;DHT22;3168;51.684;6.954;2022-07-12T08:00:06;20.70;56.80
6270;DHT22;3168;51.684;6.954;2022-07-12T08:02:32;20.80;66.30
6270;DHT22;3168;51.684;6.954;2022-07-12T08:04:58;20.80;59.90
6270;DHT22;3168;51.684;6.954;2022-07-12T08:07:24;20.80;62.30
6270;DHT22;3168;51.684;6.954;2022-07-12T08:09:50;20.90;57.60
6270;DHT22;3168;51.684;6.954;2022-07-12T08:12:16;20.90;57.60
6270;DHT22;3168;51.684;6.954;2022-07-12T08:14:42;21.00;57.10
6270;DHT22;3168;51.684;6.954;2022-07-12T08:17:08;21.10;54.20
6270;DHT22;3168;51.684;6.954;2022-07-12T08:19:34;21.20;55.70
6270;DHT22;3168;51.684;6.954;2022-07-12T08:22:00;21.30;50.20
6270;DHT22;3168;51.684;6.954;2022-07-12T08:24:26;21.20;49.10
6270;DHT22;3168;51.684;6.954;2022-07-12T08:26:51;21.20;48.00
6270;DHT22;3168;51.684;6.954;2022-07-12T08:29:17;21.40;46.40
6270;DHT22;3168;51.684;6.954;2022-07-12T08:31:43;21.50;41.20
6270;DHT22;3168;51.684;6.954;2022-07-12T08:34:09;21.70;33.70
6270;DHT22;3168;51.684;6.954;2022-07-12T08:36:35;21.80;32.40
6270;DHT22;3168;51.684;6.954;2022-07-12T08:39:01;22.00;23.70
6270;DHT22;3168;51.684;6.954;2022-07-12T08:41:26;22.00;20.40
6270;DHT22;3168;51.684;6.954;2022-07-12T08:43:52;21.90;16.80
6270;DHT22;3168;51.684;6.954;2022-07-12T08:46:18;21.60;15.00
6270;DHT22;3168;51.684;6.954;2022-07-12T08:48:44;21.70;21.20
6270;DHT22;3168;51.684;6.954;2022-07-12T08:51:11;21.90;21.40
6270;DHT22;3168;51.684;6.954;2022-07-12T08:53:36;21.90;22.00
6270;DHT22;3168;51.684;6.954;2022-07-12T08:56:03;22.10;7.80
6270;DHT22;3168;51.684;6.954;2022-07-12T08:58:29;22.00;14.60
6270;DHT22;3168;51.684;6.954;2022-07-12T09:00:55;22.30;22.20
6270;DHT22;3168;51.684;6.954;2022-07-12T09:03:21;22.40;11.70
6270;DHT22;3168;51.684;6.954;2022-07-12T09:05:56;22.50;13.60
6270;DHT22;3168;51.684;6.954;2022-07-12T09:08:27;22.50;9.60
6270;DHT22;3168;51.684;6.954;2022-07-12T09:10:53;22.60;5.80
6270;DHT22;3168;51.684;6.954;2022-07-12T09:13:18;22.60;5.90
6270;DHT22;3168;51.684;6.954;2022-07-12T09:15:44;22.80;7.30
6270;DHT22;3168;51.684;6.954;2022-07-12T09:18:10;22.80;1.10
6270;DHT22;3168;51.684;6.954;2022-07-12T09:20:39;22.90;1.00
6270;DHT22;3168;51.684;6.954;2022-07-12T09:23:05;22.90;1.00
6270;DHT22;3168;51.684;6.954;2022-07-12T09:25:31;22.80;1.00
6270;DHT22;3168;51.684;6.954;2022-07-12T09:27:57;22.90;1.00
6270;DHT22;3168;51.684;6.954;2022-07-12T09:30:24;22.80;1.00
6270;DHT22;3168;51.684;6.954;2022-07-12T09:32:52;22.90;1.00
6270;DHT22;3168;51.684;6.954;2022-07-12T09:35:23;23.00;1.00
6270;DHT22;3168;51.684;6.954;2022-07-12T09:37:55;23.00;1.00
6270;DHT22;3168;51.684;6.954;2022-07-12T09:40:21;23.20;1.00
6270;DHT22;3168;51.684;6.954;2022-07-12T09:42:47;23.40;1.00
6270;DHT22;3168;51.684;6.954;2022-07-12T09:45:13;23.30;1.00
6270;DHT22;3168;51.684;6.954;2022-07-12T09:47:39;23.30;1.00
6270;DHT22;3168;51.684;6.954;2022-07-12T09:50:05;23.40;1.00
6270;DHT22;3168;51.684;6.954;2022-07-12T09:52:34;23.80;1.00
6270;DHT22;3168;51.684;6.954;2022-07-12T09:54:59;23.80;1.00
6270;DHT22;3168;51.684;6.954;2022-07-12T09:57:27;24.10;1.00
6270;DHT22;3168;51.684;6.954;2022-07-12T09:59:52;24.10;1.00
6270;DHT22;3168;51.684;6.954;2022-07-12T10:02:18;24.00;1.00
6270;DHT22;3168;51.684;6.954;2022-07-12T10:04:44;24.10;1.00
6270;DHT22;3168;51.684;6.954;2022-07-12T10:07:10;24.00;1.00
6270;DHT22;3168;51.684;6.954;2022-07-12T10:09:36;24.40;1.00
6270;DHT22;3168;51.684;6.954;2022-07-12T10:12:02;24.40;1.00
6270;DHT22;3168;51.684;6.954;2022-07-12T10:14:28;24.40;1.00
6270;DHT22;3168;51.684;6.954;2022-07-12T10:16:54;24.40;1.00
6270;DHT22;3168;51.684;6.954;2022-07-12T10:19:30;24.40;1.00
6270;DHT22;3168;51.684;6.954;2022-07-12T10:21:58;24.60;1.00
6270;DHT22;3168;51.684;6.954;2022-07-12T10:24:46;24.60;1.00
6270;DHT22;3168;51.684;6.954;2022-07-12T10:27:29;24.70;1.00
6270;DHT22;3168;51.684;6.954;2022-07-12T10:29:55;24.90;1.00
6270;DHT22;3168;51.684;6.954;2022-07-12T10:32:27;25.10;1.00
6270;DHT22;3168;51.684;6.954;2022-07-12T10:34:59;25.30;1.00
6270;DHT22;3168;51.684;6.954;2022-07-12T10:37:25;25.30;1.00
6270;DHT22;3168;51.684;6.954;2022-07-12T10:42:28;25.00;1.00
6270;DHT22;3168;51.684;6.954;2022-07-12T10:44:54;25.00;1.00
6270;DHT22;3168;51.684;6.954;2022-07-12T10:47:20;25.00;1.00
6270;DHT22;3168;51.684;6.954;2022-07-12T10:49:48;24.90;1.00
6270;DHT22;3168;51.684;6.954;2022-07-12T10:52:15;25.10;1.00
6270;DHT22;3168;51.684;6.954;2022-07-12T10:54:41;25.30;1.00
6270;DHT22;3168;51.684;6.954;2022-07-12T10:57:06;25.50;1.00
6270;DHT22;3168;51.684;6.954;2022-07-12T10:59:33;25.70;1.00
6270;DHT22;3168;51.684;6.954;2022-07-12T11:01:58;25.80;1.00
6270;DHT22;3168;51.684;6.954;2022-07-12T11:04:24;26.00;1.00
6270;DHT22;3168;51.684;6.954;2022-07-12T11:06:50;25.90;1.00
6270;DHT22;3168;51.684;6.954;2022-07-12T11:09:16;26.00;1.00
6270;DHT22;3168;51.684;6.954;2022-07-12T11:11:43;26.10;1.00
6270;DHT22;3168;51.684;6.954;2022-07-12T11:14:08;26.10;1.00
6270;DHT22;3168;51.684;6.954;2022-07-12T11:16:42;26.30;1.00
6270;DHT22;3168;51.684;6.954;2022-07-12T11:19:00;26.40;1.00
6270;DHT22;3168;51.684;6.954;2022-07-12T11:21:26;26.40;1.00
6270;DHT22;3168;51.684;6.954;2022-07-12T11:23:52;26.10;1.00
6270;DHT22;3168;51.684;6.954;2022-07-12T11:26:18;26.30;1.00
6270;DHT22;3168;51.684;6.954;2022-07-12T11:28:45;26.10;1.00
6270;DHT22;3168;51.684;6.954;2022-07-12T11:31:11;26.60;1.00
6270;DHT22;3168;51.684;6.954;2022-07-12T11:33:37;26.60;1.00
6270;DHT22;3168;51.684;6.954;2022-07-12T11:36:04;27.00;1.00
6270;DHT22;3168;51.684;6.954;2022-07-12T11:38:30;26.90;1.00
6270;DHT22;3168;51.684;6.954;2022-07-12T11:40:58;27.20;1.00
6270;DHT22;3168;51.684;6.954;2022-07-12T11:43:24;26.70;1.00
6270;DHT22;3168;51.684;6.954;2022-07-12T11:45:49;26.80;1.00
6270;DHT22;3168;51.684;6.954;2022-07-12T11:48:15;26.70;1.00
6270;DHT22;3168;51.684;6.954;2022-07-12T11:50:42;26.80;1.00
6270;DHT22;3168;51.684;6.954;2022-07-12T11:53:14;26.90;1.00
6270;DHT22;3168;51.684;6.954;2022-07-12T11:55:40;27.10;1.00
6270;DHT22;3168;51.684;6.954;2022-07-12T11:58:04;27.30;1.00
6270;DHT22;3168;51.684;6.954;2022-07-12T12:00:30;26.80;1.00
6270;DHT22;3168;51.684;6.954;2022-07-12T12:02:56;26.80;1.00
6270;DHT22;3168;51.684;6.954;2022-07-12T12:05:22;27.10;1.00
6270;DHT22;3168;51.684;6.954;2022-07-12T12:07:48;27.20;1.00
6270;DHT22;3168;51.684;6.954;2022-07-12T12:10:14;27.20;1.00
6270;DHT22;3168;51.684;6.954;2022-07-12T12:12:45;27.40;1.00
6270;DHT22;3168;51.684;6.954;2022-07-12T12:15:12;27.50;1.00
6270;DHT22;3168;51.684;6.954;2022-07-12T12:17:37;27.80;1.00
6270;DHT22;3168;51.684;6.954;2022-07-12T12:20:10;27.90;1.00
6270;DHT22;3168;51.684;6.954;2022-07-12T12:22:36;27.80;1.00
6270;DHT22;3168;51.684;6.954;2022-07-12T12:25:03;28.00;1.00
6270;DHT22;3168;51.684;6.954;2022-07-12T12:27:27;28.30;1.00
6270;DHT22;3168;51.684;6.954;2022-07-12T12:29:57;27.80;1.00
6270;DHT22;3168;51.684;6.954;2022-07-12T12:32:19;27.70;1.00
6270;DHT22;3168;51.684;6.954;2022-07-12T12:37:23;28.00;1.00
6270;DHT22;3168;51.684;6.954;2022-07-12T12:39:49;27.70;1.00
6270;DHT22;3168;51.684;6.954;2022-07-12T12:42:22;28.00;1.00
6270;DHT22;3168;51.684;6.954;2022-07-12T12:44:41;28.20;1.00
6270;DHT22;3168;51.684;6.954;2022-07-12T12:47:06;28.00;1.00
6270;DHT22;3168;51.684;6.954;2022-07-12T12:49:46;27.90;1.00
6270;DHT22;3168;51.684;6.954;2022-07-12T12:52:11;28.00;1.00
6270;DHT22;3168;51.684;6.954;2022-07-12T12:54:37;28.00;1.00
6270;DHT22;3168;51.684;6.954;2022-07-12T12:57:05;28.30;1.00
6270;DHT22;3168;51.684;6.954;2022-07-12T12:59:31;28.50;1.00
6270;DHT22;3168;51.684;6.954;2022-07-12T13:01:57;28.40;1.00
6270;DHT22;3168;51.684;6.954;2022-07-12T13:04:26;28.40;1.00
6270;DHT22;3168;51.684;6.954;2022-07-12T13:06:49;28.30;1.00
6270;DHT22;3168;51.684;6.954;2022-07-12T13:09:15;28.00;1.00
6270;DHT22;3168;51.684;6.954;2022-07-12T13:11:40;28.20;1.00
6270;DHT22;3168;51.684;6.954;2022-07-12T13:14:06;28.10;1.00
6270;DHT22;3168;51.684;6.954;2022-07-12T13:16:32;28.30;1.00
6270;DHT22;3168;51.684;6.954;2022-07-12T13:18:58;28.60;1.00
6270;DHT22;3168;51.684;6.954;2022-07-12T13:21:24;28.70;1.00
6270;DHT22;3168;51.684;6.954;2022-07-12T13:23:50;28.30;1.00
6270;DHT22;3168;51.684;6.954;2022-07-12T13:26:16;28.40;1.00
6270;DHT22;3168;51.684;6.954;2022-07-12T13:28:42;28.70;1.00
6270;DHT22;3168;51.684;6.954;2022-07-12T13:31:07;29.00;1.00
6270;DHT22;3168;51.684;6.954;2022-07-12T13:33:33;29.00;1.00
6270;DHT22;3168;51.684;6.954;2022-07-12T13:35:59;29.00;1.00
6270;DHT22;3168;51.684;6.954;2022-07-12T13:38:25;28.90;1.00
6270;DHT22;3168;51.684;6.954;2022-07-12T13:40:51;28.70;1.00
6270;DHT22;3168;51.684;6.954;2022-07-12T13:43:17;28.50;1.00
6270;DHT22;3168;51.684;6.954;2022-07-12T13:45:43;28.50;1.00
6270;DHT22;3168;51.684;6.954;2022-07-12T13:48:09;28.90;1.00
6270;DHT22;3168;51.684;6.954;2022-07-12T13:50:35;28.90;1.00
6270;DHT22;3168;51.684;6.954;2022-07-12T13:53:01;28.80;1.00
6270;DHT22;3168;51.684;6.954;2022-07-12T13:55:27;28.70;1.00
6270;DHT22;3168;51.684;6.954;2022-07-12T13:57:53;28.80;1.00
6270;DHT22;3168;51.684;6.954;2022-07-12T14:00:20;28.70;1.00
6270;DHT22;3168;51.684;6.954;2022-07-12T14:02:46;28.70;1.00
6270;DHT22;3168;51.684;6.954;2022-07-12T14:05:12;29.60;1.00
6270;DHT22;3168;51.684;6.954;2022-07-12T14:07:38;29.60;1.00
6270;DHT22;3168;51.684;6.954;2022-07-12T14:10:04;29.70;1.00
6270;DHT22;3168;51.684;6.954;2022-07-12T14:12:30;30.00;1.00
6270;DHT22;3168;51.684;6.954;2022-07-12T14:14:56;30.40;1.00
6270;DHT22;3168;51.684;6.954;2022-07-12T14:17:28;30.50;1.00
6270;DHT22;3168;51.684;6.954;2022-07-12T14:19:54;30.40;1.00
6270;DHT22;3168;51.684;6.954;2022-07-12T14:22:19;30.50;1.00
6270;DHT22;3168;51.684;6.954;2022-07-12T14:24:45;30.80;1.00
6270;DHT22;3168;51.684;6.954;2022-07-12T14:27:11;30.70;1.00
6270;DHT22;3168;51.684;6.954;2022-07-12T14:29:38;30.30;1.00
6270;DHT22;3168;51.684;6.954;2022-07-12T14:32:04;30.20;1.00
6270;DHT22;3168;51.684;6.954;2022-07-12T14:34:30;30.20;1.00
6270;DHT22;3168;51.684;6.954;2022-07-12T14:36:56;30.30;1.00
6270;DHT22;3168;51.684;6.954;2022-07-12T14:39:22;30.10;1.00
6270;DHT22;3168;51.684;6.954;2022-07-12T14:41:48;29.90;1.00
6270;DHT22;3168;51.684;6.954;2022-07-12T14:44:14;30.00;1.00
6270;DHT22;3168;51.684;6.954;2022-07-12T14:46:39;29.90;1.00
6270;DHT22;3168;51.684;6.954;2022-07-12T14:49:05;29.60;1.00
6270;DHT22;3168;51.684;6.954;2022-07-12T14:51:31;29.40;1.00
6270;DHT22;3168;51.684;6.954;2022-07-12T14:53:57;29.20;1.00
6270;DHT22;3168;51.684;6.954;2022-07-12T14:56:23;29.10;1.00
6270;DHT22;3168;51.684;6.954;2022-07-12T14:58:49;28.80;1.00
6270;DHT22;3168;51.684;6.954;2022-07-12T15:01:14;29.00;1.00
6270;DHT22;3168;51.684;6.954;2022-07-12T15:03:40;29.20;1.00
6270;DHT22;3168;51.684;6.954;2022-07-12T15:06:07;29.10;1.00
6270;DHT22;3168;51.684;6.954;2022-07-12T15:08:33;29.30;1.00
6270;DHT22;3168;51.684;6.954;2022-07-12T15:10:59;29.10;1.00
6270;DHT22;3168;51.684;6.954;2022-07-12T15:13:25;29.00;1.00
6270;DHT22;3168;51.684;6.954;2022-07-12T15:15:51;28.90;1.00
6270;DHT22;3168;51.684;6.954;2022-07-12T15:18:16;29.00;1.00
6270;DHT22;3168;51.684;6.954;2022-07-12T15:20:42;29.20;1.00
6270;DHT22;3168;51.684;6.954;2022-07-12T15:23:08;29.20;1.00
6270;DHT22;3168;51.684;6.954;2022-07-12T15:25:34;29.20;1.00
6270;DHT22;3168;51.684;6.954;2022-07-12T15:28:00;29.30;1.00
6270;DHT22;3168;51.684;6.954;2022-07-12T15:30:26;29.30;1.00
6270;DHT22;3168;51.684;6.954;2022-07-12T15:32:52;29.40;1.00
6270;DHT22;3168;51.684;6.954;2022-07-12T15:35:18;29.30;1.00
6270;DHT22;3168;51.684;6.954;2022-07-12T15:37:44;29.20;1.00
6270;DHT22;3168;51.684;6.954;2022-07-12T15:40:11;29.20;1.00
6270;DHT22;3168;51.684;6.954;2022-07-12T15:42:37;29.10;1.00
6270;DHT22;3168;51.684;6.954;2022-07-12T15:45:03;29.10;1.00
6270;DHT22;3168;51.684;6.954;2022-07-12T15:47:29;29.00;1.00
6270;DHT22;3168;51.684;6.954;2022-07-12T15:49:55;28.90;1.00
6270;DHT22;3168;51.684;6.954;2022-07-12T15:52:21;28.80;1.00
6270;DHT22;3168;51.684;6.954;2022-07-12T15:54:53;28.80;1.00
6270;DHT22;3168;51.684;6.954;2022-07-12T15:57:18;29.00;1.00
6270;DHT22;3168;51.684;6.954;2022-07-12T15:59:44;29.20;1.00
6270;DHT22;3168;51.684;6.954;2022-07-12T16:02:10;29.20;1.00
6270;DHT22;3168;51.684;6.954;2022-07-12T16:04:36;29.10;1.00
6270;DHT22;3168;51.684;6.954;2022-07-12T16:07:02;28.80;1.00